Time;durP1;ratioP1;P1;durP2;ratioP2;P2;SDS_P1;SDS_P2;PMS_P1;PMS_P2;Temp;Humidity;BMP_temperature;BMP_pressure;BME280_temperature;BME280_humidity;BME280_pressure;Samples;Min_cycle;Max_cycle;Signal;HPM_P1;HPM_P2
2023/12/27 00:02:04;;;;;;;27.77;12.37;;;9.00;94.40;;;10.88;63.70;98237.25;5030411;28;20060;-63
2023/12/27 00:04:31;;;;;;;37.03;17.97;;;9.00;94.10;;;10.86;63.41;98234.75;5030690;28;20433;-64
2023/12/27 00:06:59;;;;;;;33.03;13.90;;;9.00;93.60;;;10.86;63.50;98226.75;5029895;28;20308;-64
2023/12/27 00:09:27;;;;;;;21.83;10.83;;;9.10;93.50;;;10.87;63.52;98230.25;5030285;28;20048;-63
2023/12/27 00:11:54;;;;;;;19.83;8.93;;;9.10;93.00;;;10.87;63.48;98233.72;5030464;28;20052;-64
2023/12/27 00:14:22;;;;;;;46.13;17.73;;;9.10;93.10;;;10.87;63.64;98233.72;5030575;28;20520;-64
2023/12/27 00:16:50;;;;;;;20.53;8.87;;;9.10;92.90;;;10.82;63.58;98220.03;5030526;28;20061;-64
2023/12/27 00:19:17;;;;;;;24.40;11.90;;;9.00;93.30;;;10.81;63.17;98213.84;5030178;28;20516;-64
2023/12/27 00:21:45;;;;;;;28.60;13.13;;;9.00;93.60;;;10.79;63.60;98221.16;5037821;28;20046;-64
2023/12/27 00:24:13;;;;;;;14.53;7.90;;;8.90;93.80;;;10.78;63.73;98216.00;5030312;28;20060;-64
2023/12/27 00:26:40;;;;;;;15.50;6.70;;;8.90;93.90;;;10.73;63.66;98226.25;5030371;28;20501;-63
2023/12/27 00:29:08;;;;;;;7.27;3.37;;;8.80;94.50;;;10.67;63.49;98232.19;5030241;28;20041;-63
2023/12/27 00:31:35;;;;;;;5.73;3.10;;;8.70;95.50;;;10.67;63.50;98237.50;5012504;28;20054;-64
2023/12/27 00:34:03;;;;;;;6.80;2.90;;;8.70;95.10;;;10.62;63.65;98232.59;5030317;28;20041;-63
2023/12/27 00:36:31;;;;;;;4.27;2.43;;;8.70;95.20;;;10.54;64.03;98225.34;5030669;28;20041;-64
2023/12/27 00:39:01;;;;;;;6.07;2.77;;;8.60;96.10;;;10.52;63.72;98221.16;5028570;28;20060;-63
2023/12/27 00:41:28;;;;;;;2.40;1.97;;;8.60;96.70;;;10.49;64.31;98222.31;5029015;28;20046;-64
2023/12/27 00:43:56;;;;;;;3.47;2.47;;;8.60;96.20;;;10.43;64.13;98213.06;5028660;28;20065;-63
2023/12/27 00:46:24;;;;;;;4.43;2.57;;;8.50;96.90;;;10.44;64.40;98204.09;5030377;28;20505;-64
2023/12/27 00:48:51;;;;;;;4.37;1.93;;;8.60;97.30;;;10.46;64.01;98205.78;5030303;28;20041;-63
2023/12/27 00:51:20;;;;;;;3.50;1.90;;;8.60;96.70;;;10.46;64.65;98211.94;5028435;28;20064;-63
2023/12/27 00:53:49;;;;;;;3.30;2.20;;;8.60;96.50;;;10.48;64.07;98217.13;5028376;28;20049;-64
2023/12/27 00:56:17;;;;;;;3.67;2.03;;;8.60;96.30;;;10.49;64.04;98208.13;5029930;28;20045;-64
2023/12/27 00:58:44;;;;;;;3.23;2.33;;;8.60;95.80;;;10.49;64.30;98214.31;5032368;28;20424;-63
2023/12/27 01:01:12;;;;;;;3.50;1.97;;;8.60;96.30;;;10.46;64.21;98209.28;5032272;28;20048;-64
2023/12/27 01:03:41;;;;;;;3.13;2.20;;;8.60;96.10;;;10.46;64.34;98214.59;5033646;28;20046;-64
2023/12/27 01:06:10;;;;;;;4.30;1.97;;;8.60;96.50;;;10.46;64.25;98213.75;5024894;28;20489;-64
2023/12/27 01:08:38;;;;;;;2.53;1.70;;;8.50;96.30;;;10.43;64.03;98209.59;5033255;28;20037;-64
2023/12/27 01:11:07;;;;;;;2.70;2.10;;;8.50;96.60;;;10.43;64.61;98213.06;5033486;28;20033;-65
2023/12/27 01:13:35;;;;;;;3.23;2.50;;;8.50;96.70;;;10.42;64.46;98211.38;5031870;28;20041;-64
2023/12/27 01:16:03;;;;;;;3.53;1.80;;;8.50;96.90;;;10.41;64.31;98211.53;5033500;28;20448;-65
2023/12/27 01:18:31;;;;;;;4.50;2.47;;;8.50;97.20;;;10.39;64.17;98216.16;5033251;28;20052;-64
2023/12/27 01:21:00;;;;;;;3.80;1.93;;;8.40;97.10;;;10.39;64.36;98213.50;5032175;28;20056;-64
2023/12/27 01:23:27;;;;;;;3.53;2.07;;;8.40;97.10;;;10.37;64.13;98216.31;5015859;28;20049;-64
2023/12/27 01:25:55;;;;;;;3.10;2.00;;;8.40;97.00;;;10.36;64.16;98203.16;5033093;28;20049;-64
2023/12/27 01:28:23;;;;;;;3.87;2.07;;;8.40;97.10;;;10.35;64.45;98199.66;5031762;28;20119;-64
2023/12/27 01:30:51;;;;;;;4.63;2.40;;;8.40;96.90;;;10.34;64.14;98197.16;5033255;28;20030;-64
2023/12/27 01:33:18;;;;;;;3.47;2.43;;;8.40;97.20;;;10.32;64.49;98189.31;5031310;28;20049;-64
2023/12/27 01:35:46;;;;;;;5.80;2.10;;;8.40;97.20;;;10.30;64.71;98193.06;5033065;28;20038;-64
2023/12/27 01:38:14;;;;;;;2.60;2.00;;;8.30;97.80;;;10.26;64.47;98200.50;5032907;28;20048;-64
2023/12/27 01:40:51;;;;;;;4.13;1.70;;;8.30;98.20;;;10.27;64.83;98207.47;5033049;28;20045;-64
2023/12/27 01:43:19;;;;;;;4.23;1.93;;;8.30;98.80;;;10.29;64.50;98212.66;5025195;28;20420;-64
2023/12/27 01:45:50;;;;;;;2.47;1.77;;;8.30;98.50;;;10.31;65.02;98205.41;5031974;28;20121;-64
2023/12/27 01:48:21;;;;;;;3.70;2.20;;;8.40;98.30;;;10.32;64.47;98212.44;5007693;28;20545;-64
2023/12/27 01:50:50;;;;;;;2.23;1.73;;;8.40;98.30;;;10.32;64.62;98199.13;5031473;28;20041;-64
2023/12/27 01:53:18;;;;;;;4.13;2.20;;;8.40;98.30;;;10.34;64.61;98207.78;5031270;28;20049;-64
2023/12/27 01:55:48;;;;;;;2.67;1.90;;;8.40;98.30;;;10.35;64.77;98210.31;5015339;28;20046;-64
2023/12/27 01:58:16;;;;;;;2.20;2.00;;;8.50;98.10;;;10.34;64.52;98211.28;5007108;28;20148;-64
2023/12/27 02:00:47;;;;;;;2.53;1.80;;;8.50;97.50;;;10.36;64.36;98214.63;5029714;28;20417;-64
2023/12/27 02:03:15;;;;;;;2.30;1.77;;;8.50;97.10;;;10.38;64.47;98214.50;5023735;28;20045;-64
2023/12/27 02:05:45;;;;;;;6.50;2.10;;;8.50;96.40;;;10.38;64.54;98212.66;5031155;28;20037;-64
2023/12/27 02:08:14;;;;;;;5.10;1.80;;;8.50;95.50;;;10.38;64.11;98218.00;5030747;28;20049;-63
2023/12/27 02:10:42;;;;;;;2.53;1.83;;;8.50;94.50;;;10.41;64.10;98217.72;5032651;28;20045;-63
2023/12/27 02:13:10;;;;;;;2.87;1.53;;;8.60;93.70;;;10.43;64.35;98210.41;5014493;28;20069;-63
2023/12/27 02:15:38;;;;;;;3.33;1.73;;;8.60;93.00;;;10.47;63.96;98202.13;5031449;28;20056;-65
2023/12/27 02:18:07;;;;;;;4.97;1.87;;;8.60;93.20;;;10.45;63.76;98194.31;5031799;28;20041;-64
2023/12/27 02:20:35;;;;;;;2.93;1.97;;;8.60;93.40;;;10.46;63.83;98200.44;5030765;28;20072;-64
2023/12/27 02:23:07;;;;;;;2.97;2.07;;;8.60;93.70;;;10.45;64.17;98196.97;5032140;28;20160;-64
2023/12/27 02:25:35;;;;;;;4.70;2.40;;;8.50;93.60;;;10.44;63.93;98197.94;5032369;28;20042;-64
2023/12/27 02:28:04;;;;;;;3.70;2.07;;;8.60;93.90;;;10.45;64.01;98199.63;5030599;28;20045;-64
2023/12/27 02:30:36;;;;;;;3.57;1.53;;;8.60;93.40;;;10.47;64.04;98191.47;5030968;28;20056;-64
2023/12/27 02:33:04;;;;;;;4.43;2.17;;;8.60;93.50;;;10.50;63.85;98201.84;5030196;28;20056;-64
2023/12/27 02:35:32;;;;;;;3.73;1.90;;;8.60;93.20;;;10.51;63.71;98201.69;5014488;28;20045;-64
2023/12/27 02:38:02;;;;;;;3.83;2.37;;;8.70;92.90;;;10.53;63.77;98197.06;5031573;28;20046;-65
2023/12/27 02:40:29;;;;;;;3.83;1.70;;;8.70;92.70;;;10.56;63.67;98193.25;5031912;28;20056;-64
2023/12/27 02:42:57;;;;;;;2.13;1.60;;;8.70;92.00;;;10.58;63.38;98189.44;5030157;28;20060;-64
2023/12/27 02:45:25;;;;;;;2.93;1.57;;;8.80;91.80;;;10.61;63.45;98185.66;5030638;28;20128;-63
2023/12/27 02:47:53;;;;;;;3.27;1.80;;;8.80;91.60;;;10.60;63.06;98171.53;5030678;28;20417;-64
2023/12/27 02:50:20;;;;;;;3.27;1.97;;;8.80;91.60;;;10.61;63.46;98172.34;5022822;28;20053;-65
2023/12/27 02:52:48;;;;;;;2.73;1.67;;;8.80;91.60;;;10.63;63.34;98168.56;5030550;28;20049;-64
2023/12/27 02:55:16;;;;;;;2.97;1.73;;;8.80;91.20;;;10.64;63.06;98172.03;5030018;28;20056;-64
2023/12/27 02:57:43;;;;;;;2.77;1.60;;;8.90;91.00;;;10.63;63.18;98173.88;5030267;28;20053;-65
2023/12/27 03:00:12;;;;;;;3.97;1.70;;;8.80;91.00;;;10.64;63.26;98178.22;5029811;28;20511;-65
2023/12/27 03:02:39;;;;;;;2.83;1.67;;;8.80;90.70;;;10.63;63.17;98165.06;5030179;28;20053;-65
2023/12/27 03:05:07;;;;;;;5.33;1.80;;;8.80;91.40;;;10.61;63.34;98159.88;5029930;28;20053;-64
2023/12/27 03:07:35;;;;;;;4.27;2.30;;;8.80;91.70;;;10.59;63.50;98151.19;5028965;28;20049;-64
2023/12/27 03:10:03;;;;;;;6.07;2.20;;;8.70;92.20;;;10.59;63.54;98148.53;5029601;28;20041;-64
2023/12/27 03:12:31;;;;;;;4.30;1.67;;;8.80;92.30;;;10.58;63.35;98157.50;5031162;28;20519;-64
2023/12/27 03:14:59;;;;;;;4.03;1.77;;;8.70;92.00;;;10.57;63.10;98150.50;5029854;28;20074;-64
2023/12/27 03:17:27;;;;;;;3.63;2.00;;;8.70;92.20;;;10.58;63.57;98154.00;5031154;28;20064;-64
2023/12/27 03:19:54;;;;;;;3.20;2.10;;;8.70;92.60;;;10.54;63.74;98144.66;5028732;28;20046;-64
2023/12/27 03:22:22;;;;;;;4.23;2.83;;;8.60;92.30;;;10.51;63.49;98144.97;5030982;28;20046;-65
2023/12/27 03:24:49;;;;;;;2.87;2.00;;;8.60;92.10;;;10.48;63.18;98146.06;5031149;28;20041;-64
2023/12/27 03:27:17;;;;;;;3.63;2.03;;;8.50;92.80;;;10.48;63.06;98147.91;5013083;28;20064;-64
2023/12/27 03:29:45;;;;;;;6.67;2.00;;;8.50;92.70;;;10.48;63.55;98150.56;5029460;28;20042;-64
2023/12/27 03:32:12;;;;;;;2.63;1.70;;;8.60;93.00;;;10.49;63.28;98147.75;5029578;28;20049;-64
2023/12/27 03:34:40;;;;;;;2.63;2.00;;;8.60;92.80;;;10.53;63.49;98145.66;5029760;28;20072;-65
2023/12/27 03:37:07;;;;;;;4.00;1.70;;;8.70;92.60;;;10.56;63.12;98148.00;5030728;28;20042;-65
2023/12/27 03:39:35;;;;;;;3.07;1.80;;;8.70;92.00;;;10.57;62.94;98147.84;5013358;28;20053;-64
2023/12/27 03:42:03;;;;;;;3.23;2.00;;;8.80;91.70;;;10.60;63.17;98154.69;5029532;28;20057;-63
2023/12/27 03:44:31;;;;;;;3.43;2.67;;;8.80;91.60;;;10.60;63.10;98150.22;5029820;28;20053;-64
2023/12/27 03:46:58;;;;;;;2.50;1.90;;;8.80;91.70;;;10.61;63.31;98151.88;5030900;28;20057;-64
2023/12/27 03:49:27;;;;;;;5.03;2.40;;;8.80;91.50;;;10.64;63.21;98151.59;5029398;28;20045;-63
2023/12/27 03:51:55;;;;;;;3.37;2.17;;;8.80;91.30;;;10.62;62.75;98148.25;5029684;28;20044;-64
2023/12/27 03:54:23;;;;;;;5.30;3.20;;;8.80;91.40;;;10.62;63.06;98140.25;5029349;28;20420;-64
2023/12/27 03:56:51;;;;;;;4.93;2.90;;;8.80;91.20;;;10.62;63.14;98144.72;5030837;28;20034;-64
2023/12/27 03:59:19;;;;;;;2.40;1.97;;;8.90;91.10;;;10.61;62.84;98143.91;5030188;28;20064;-64
2023/12/27 04:01:46;;;;;;;5.00;2.07;;;8.80;91.70;;;10.61;62.83;98143.91;5030659;28;20044;-64
2023/12/27 04:04:15;;;;;;;2.43;1.93;;;8.80;91.70;;;10.59;63.14;98142.38;5029211;28;20054;-64
2023/12/27 04:06:43;;;;;;;3.23;2.00;;;8.80;91.90;;;10.57;63.12;98139.03;5028337;28;20045;-64
2023/12/27 04:09:12;;;;;;;3.10;2.27;;;8.70;92.20;;;10.54;63.28;98136.66;5028959;28;20080;-64
2023/12/27 04:11:44;;;;;;;4.27;2.27;;;8.70;91.90;;;10.51;63.29;98131.66;5030719;28;20515;-63
2023/12/27 04:14:17;;;;;;;5.13;2.70;;;8.70;91.50;;;10.48;62.98;98140.75;5029247;28;20049;-64
2023/12/27 04:16:44;;;;;;;3.87;2.50;;;8.70;90.70;;;10.48;63.23;98137.25;5028914;28;20045;-64
2023/12/27 04:19:12;;;;;;;4.43;2.53;;;8.70;90.00;;;10.47;62.89;98133.78;5028820;28;20059;-64
2023/12/27 04:21:41;;;;;;;5.10;2.30;;;8.60;89.50;;;10.46;63.12;98118.75;5029261;28;20052;-64
2023/12/27 04:24:09;;;;;;;3.47;2.30;;;8.60;90.00;;;10.48;62.83;98116.78;5028912;28;20049;-63
2023/12/27 04:26:41;;;;;;;4.50;2.60;;;8.60;89.40;;;10.46;62.65;98118.75;5028949;28;20049;-64
2023/12/27 04:29:09;;;;;;;4.20;2.80;;;8.60;89.70;;;10.47;62.49;98112.47;5030168;28;20417;-64
2023/12/27 04:31:38;;;;;;;4.40;2.23;;;8.70;89.40;;;10.46;62.75;98105.47;5014388;28;20433;-64
2023/12/27 04:34:06;;;;;;;3.73;2.50;;;8.60;89.20;;;10.43;62.67;98105.78;5033272;28;20050;-63
2023/12/27 04:36:36;;;;;;;4.60;2.77;;;8.60;89.60;;;10.43;62.28;98103.13;5032774;28;20049;-64
2023/12/27 04:39:08;;;;;;;5.73;2.87;;;8.60;89.80;;;10.43;62.62;98108.44;5032207;28;20037;-63
2023/12/27 04:41:36;;;;;;;3.63;2.50;;;8.60;90.10;;;10.42;62.73;98110.22;5032931;28;20621;-63
2023/12/27 04:44:04;;;;;;;4.13;3.07;;;8.60;90.50;;;10.43;62.47;98106.59;5032045;28;20424;-64
2023/12/27 04:46:31;;;;;;;4.40;2.60;;;8.60;90.60;;;10.42;62.84;98102.25;5033949;28;20037;-63
2023/12/27 04:49:00;;;;;;;3.70;2.80;;;8.60;90.70;;;10.42;62.87;98107.56;5033548;28;20053;-64
2023/12/27 04:51:29;;;;;;;6.73;3.80;;;8.60;91.20;;;10.40;62.89;98116.72;5033785;28;20044;-64
2023/12/27 04:53:57;;;;;;;5.73;3.37;;;8.50;90.50;;;10.39;62.94;98110.56;5033534;28;20045;-63
2023/12/27 04:56:24;;;;;;;5.53;3.30;;;8.50;90.60;;;10.40;62.83;98117.53;5033900;28;20050;-64
2023/12/27 04:58:52;;;;;;;6.80;3.80;;;8.50;90.30;;;10.39;62.38;98123.88;5032610;28;20072;-64
2023/12/27 05:01:20;;;;;;;4.00;2.67;;;8.50;90.70;;;10.36;62.66;98118.81;5032593;28;20057;-64
2023/12/27 05:03:47;;;;;;;4.70;2.73;;;8.40;90.20;;;10.32;62.53;98112.13;5030081;28;20397;-64
2023/12/27 05:06:15;;;;;;;8.23;2.73;;;8.40;90.30;;;10.32;62.95;98113.94;5032145;28;20053;-64
2023/12/27 05:08:44;;;;;;;3.97;3.30;;;8.40;90.50;;;10.33;62.84;98115.63;5032993;28;20052;-64
2023/12/27 05:11:15;;;;;;;4.27;2.70;;;8.40;90.30;;;10.34;62.84;98118.13;5032578;28;20050;-64
2023/12/27 05:13:43;;;;;;;9.70;3.30;;;8.50;90.60;;;10.35;62.76;98113.63;5033408;28;20034;-63
2023/12/27 05:16:13;;;;;;;4.77;3.63;;;8.50;90.20;;;10.34;62.85;98111.97;5033875;28;20520;-64
2023/12/27 05:18:42;;;;;;;5.83;3.03;;;8.50;90.00;;;10.35;62.78;98110.97;5033275;28;20053;-64
2023/12/27 05:21:13;;;;;;;11.10;7.03;;;8.50;90.20;;;10.38;62.41;98110.69;5032240;28;20052;-64
2023/12/27 05:23:40;;;;;;;7.00;5.70;;;8.60;89.90;;;10.41;62.74;98105.91;5033720;28;20041;-64
2023/12/27 05:26:08;;;;;;;6.40;4.70;;;8.60;90.20;;;10.43;62.49;98100.44;5033242;28;20049;-64
2023/12/27 05:28:36;;;;;;;4.30;3.23;;;8.60;89.60;;;10.41;62.37;98100.59;5032932;28;20052;-64
2023/12/27 05:31:04;;;;;;;4.60;3.33;;;8.70;89.70;;;10.43;62.33;98101.28;5032845;28;20050;-64
2023/12/27 05:33:32;;;;;;;6.10;3.67;;;8.70;89.60;;;10.43;62.64;98109.25;5032474;28;20430;-64
2023/12/27 05:36:00;;;;;;;3.30;2.90;;;8.60;89.30;;;10.42;62.31;98107.56;5032796;28;20417;-64
2023/12/27 05:38:28;;;;;;;4.43;3.73;;;8.60;89.50;;;10.43;62.35;98105.78;5032571;28;20413;-64
2023/12/27 05:40:55;;;;;;;7.00;4.03;;;8.60;89.70;;;10.41;62.28;98108.56;5033065;28;20065;-64
2023/12/27 05:43:23;;;;;;;9.00;6.00;;;8.60;90.10;;;10.40;62.59;98093.59;5032290;28;20049;-65
2023/12/27 05:45:51;;;;;;;6.13;5.03;;;8.60;90.00;;;10.39;62.29;98099.91;5032784;28;20491;-64
2023/12/27 05:48:18;;;;;;;6.70;4.90;;;8.50;89.90;;;10.37;62.40;98096.56;5031073;28;20053;-64
2023/12/27 05:50:46;;;;;;;6.07;5.27;;;8.50;90.20;;;10.34;62.19;98096.84;5032677;28;20421;-63
2023/12/27 05:53:14;;;;;;;6.70;4.60;;;8.50;90.40;;;10.34;62.58;98085.38;5032292;28;20041;-65
2023/12/27 05:55:42;;;;;;;8.13;4.33;;;8.50;90.10;;;10.31;62.37;98075.84;5031555;28;20044;-63
2023/12/27 05:58:09;;;;;;;4.83;3.33;;;8.40;90.20;;;10.28;62.53;98083.28;5032367;28;20053;-63
2023/12/27 06:00:37;;;;;;;4.13;3.23;;;8.40;90.20;;;10.22;62.15;98074.06;5031321;28;20417;-63
2023/12/27 06:03:05;;;;;;;6.97;4.00;;;8.30;90.40;;;10.18;62.04;98075.34;5032507;28;20053;-63
2023/12/27 06:05:33;;;;;;;7.33;5.57;;;8.30;89.90;;;10.10;62.47;98073.41;5032453;28;20037;-64
2023/12/27 06:08:01;;;;;;;6.80;5.80;;;8.20;91.00;;;10.05;62.43;98083.66;5031277;28;20041;-63
2023/12/27 06:10:30;;;;;;;7.60;5.60;;;8.10;91.20;;;10.02;62.25;98091.91;5031109;28;20428;-64
2023/12/27 06:12:58;;;;;;;7.83;5.07;;;8.10;91.40;;;9.98;62.55;98090.53;5032394;28;20042;-63
2023/12/27 06:15:25;;;;;;;5.23;2.60;;;8.00;91.10;;;9.92;62.49;98077.84;5032327;28;20390;-63
2023/12/27 06:17:53;;;;;;;5.70;4.10;;;8.00;91.10;;;9.87;62.82;98072.97;5032372;28;20056;-63
2023/12/27 06:20:21;;;;;;;8.63;3.73;;;8.00;91.10;;;9.83;62.88;98059.13;5030876;28;20045;-63
2023/12/27 06:22:49;;;;;;;6.60;3.47;;;8.00;91.10;;;9.80;62.76;98058.56;5032219;28;20053;-63
2023/12/27 06:25:17;;;;;;;4.07;2.90;;;8.00;91.10;;;9.76;63.09;98049.22;5032425;28;20049;-63
2023/12/27 06:27:44;;;;;;;4.47;2.87;;;8.00;91.00;;;9.75;62.89;98045.72;5031136;28;20057;-63
2023/12/27 06:30:12;;;;;;;4.50;2.83;;;8.00;90.80;;;9.73;63.23;98046.81;5030469;28;20049;-63
2023/12/27 06:32:40;;;;;;;6.63;3.67;;;8.00;91.10;;;9.71;63.05;98057.59;5024477;28;20052;-63
2023/12/27 06:35:08;;;;;;;5.27;2.73;;;7.90;91.10;;;9.69;62.79;98066.72;5032007;28;20049;-63
2023/12/27 06:37:35;;;;;;;4.53;2.83;;;7.90;91.00;;;9.65;63.09;98067.03;5031583;28;20060;-63
2023/12/27 06:40:08;;;;;;;6.73;3.33;;;7.90;90.90;;;9.65;62.77;98068.81;5031655;28;20042;-63
2023/12/27 06:42:36;;;;;;;4.87;2.93;;;7.90;90.60;;;9.62;62.86;98069.97;5030366;28;20045;-63
2023/12/27 06:45:05;;;;;;;4.43;2.63;;;7.80;91.30;;;9.61;63.24;98070.09;5014147;28;20105;-63
2023/12/27 06:47:32;;;;;;;8.60;3.27;;;7.80;91.90;;;9.60;62.99;98071.09;5032327;28;20412;-64
2023/12/27 06:50:00;;;;;;;4.90;3.40;;;7.80;92.20;;;9.57;63.12;98066.88;5031907;28;20056;-63
2023/12/27 06:52:28;;;;;;;3.87;3.03;;;7.70;92.40;;;9.55;63.09;98055.56;5030096;28;20049;-63
2023/12/27 06:54:55;;;;;;;6.17;2.97;;;7.70;92.70;;;9.54;63.02;98053.03;5030698;28;20037;-64
2023/12/27 06:57:23;;;;;;;6.00;3.03;;;7.70;92.50;;;9.56;62.99;98056.44;5031518;28;20048;-63
2023/12/27 06:59:51;;;;;;;4.40;3.00;;;7.70;92.60;;;9.55;63.20;98063.53;5031094;28;20067;-64
2023/12/27 07:02:19;;;;;;;3.00;2.47;;;7.70;91.80;;;9.55;63.34;98068.03;5030821;28;20045;-64
2023/12/27 07:04:46;;;;;;;5.23;3.27;;;7.70;92.00;;;9.53;62.98;98073.47;5031392;28;20038;-62
2023/12/27 07:07:14;;;;;;;4.90;3.27;;;7.70;92.00;;;9.52;63.00;98076.28;5030560;28;20056;-63
2023/12/27 07:09:42;;;;;;;3.43;2.83;;;7.60;91.70;;;9.53;63.12;98076.13;5029822;28;20052;-64
2023/12/27 07:12:11;;;;;;;6.07;2.90;;;7.60;91.50;;;9.53;62.96;98075.31;5031011;28;20053;-65
2023/12/27 07:14:39;;;;;;;4.77;2.90;;;7.60;91.70;;;9.51;63.05;98070.13;5029972;28;20490;-65
2023/12/27 07:17:07;;;;;;;4.10;2.30;;;7.60;91.50;;;9.50;63.24;98072.94;5031247;28;20041;-64
2023/12/27 07:19:35;;;;;;;4.83;2.63;;;7.60;91.70;;;9.48;62.86;98074.88;5030749;28;20052;-64
2023/12/27 07:22:03;;;;;;;5.70;2.90;;;7.50;91.70;;;9.48;62.85;98070.44;5031131;28;20390;-65
2023/12/27 07:24:30;;;;;;;5.23;2.73;;;7.60;91.70;;;9.46;62.88;98065.25;5030931;28;20046;-64
2023/12/27 07:26:58;;;;;;;3.60;2.23;;;7.60;92.00;;;9.48;62.79;98056.28;5031209;28;20045;-64
2023/12/27 07:29:26;;;;;;;5.20;2.80;;;7.60;91.40;;;9.48;63.21;98066.91;5029333;28;20524;-63
2023/12/27 07:31:53;;;;;;;5.47;2.93;;;7.60;90.90;;;9.47;63.10;98068.75;5030666;28;20038;-64
2023/12/27 07:34:21;;;;;;;5.13;2.50;;;7.60;91.20;;;9.46;63.04;98062.59;5029597;28;20049;-65
2023/12/27 07:36:49;;;;;;;3.93;2.37;;;7.60;91.30;;;9.46;62.86;98059.94;5030982;28;20413;-63
2023/12/27 07:39:17;;;;;;;5.00;2.80;;;7.60;91.60;;;9.48;63.08;98059.81;5030366;28;20515;-64
2023/12/27 07:41:45;;;;;;;5.17;2.07;;;7.60;91.30;;;9.49;62.81;98055.31;5030748;28;20034;-64
2023/12/27 07:44:12;;;;;;;3.33;2.97;;;7.70;91.00;;;9.50;62.81;98064.94;5029437;28;20056;-63
2023/12/27 07:46:40;;;;;;;4.07;2.20;;;7.70;89.90;;;9.50;62.76;98070.25;5029416;28;20037;-65
2023/12/27 07:49:07;;;;;;;4.90;2.50;;;7.70;89.90;;;9.49;62.69;98084.56;5029366;28;20487;-62
2023/12/27 07:51:35;;;;;;;4.20;1.90;;;7.70;89.90;;;9.51;62.91;98094.06;5030642;28;20160;-64
2023/12/27 07:54:03;;;;;;;3.40;2.50;;;7.60;90.20;;;9.51;62.54;98088.72;5031028;28;20068;-64
2023/12/27 07:56:34;;;;;;;3.73;2.70;;;7.60;89.70;;;9.51;62.40;98086.06;5030549;28;20045;-63
2023/12/27 07:59:03;;;;;;;5.13;2.90;;;7.60;89.40;;;9.49;62.55;98082.72;5030444;28;20060;-64
2023/12/27 08:01:31;;;;;;;4.47;2.60;;;7.60;89.60;;;9.50;62.27;98080.91;5029231;28;20060;-65
2023/12/27 08:03:59;;;;;;;3.73;2.63;;;7.60;89.70;;;9.49;62.36;98079.25;5026683;28;20054;-65
2023/12/27 08:06:27;;;;;;;7.27;3.03;;;7.70;89.40;;;9.50;62.26;98083.56;5033656;28;20060;-64
2023/12/27 08:08:55;;;;;;;3.30;2.30;;;7.60;88.90;;;9.45;62.28;98081.34;5034367;28;20527;-65
2023/12/27 08:11:23;;;;;;;3.03;2.30;;;7.60;88.80;;;9.44;62.18;98083.16;5033325;28;20041;-65
2023/12/27 08:13:50;;;;;;;5.37;2.30;;;7.60;88.70;;;9.44;62.11;98082.31;5024340;28;20042;-64
2023/12/27 08:16:18;;;;;;;3.97;2.53;;;7.60;88.50;;;9.43;62.25;98083.31;5027456;28;20045;-64
2023/12/27 08:18:46;;;;;;;5.33;2.30;;;7.60;88.20;;;9.44;62.37;98085.81;5034261;28;20505;-65
2023/12/27 08:21:14;;;;;;;6.67;2.70;;;7.60;88.00;;;9.43;62.38;98088.63;5035264;28;20049;-65
2023/12/27 08:23:42;;;;;;;4.60;2.33;;;7.60;88.50;;;9.45;62.49;98092.81;5034998;28;20053;-64
2023/12/27 08:26:10;;;;;;;3.93;2.17;;;7.70;88.60;;;9.46;62.03;98093.66;5034704;28;20053;-66
2023/12/27 08:28:38;;;;;;;3.03;2.20;;;7.60;88.20;;;9.45;62.13;98094.63;5032772;28;20064;-66
2023/12/27 08:31:06;;;;;;;6.67;2.80;;;7.60;88.50;;;9.46;62.46;98093.66;5034358;28;20473;-66
2023/12/27 08:33:37;;;;;;;6.47;2.90;;;7.60;88.60;;;9.49;62.34;98087.22;5032900;28;20050;-65
2023/12/27 08:36:05;;;;;;;5.90;2.40;;;7.70;88.20;;;9.53;62.19;98081.44;5034297;28;20536;-66
2023/12/27 08:38:34;;;;;;;8.00;4.60;;;7.70;88.40;;;9.53;62.36;98065.50;5033924;28;20417;-68
2023/12/27 08:41:02;;;;;;;7.23;4.60;;;7.70;88.00;;;9.56;62.47;98065.22;5034032;28;20049;-68
2023/12/27 08:43:30;;;;;;;5.67;3.50;;;7.80;87.20;;;9.59;62.24;98066.75;5033992;28;20042;-68
2023/12/27 08:45:58;;;;;;;7.77;2.87;;;7.80;86.80;;;9.57;61.79;98058.09;5033927;28;20050;-68
2023/12/27 08:48:25;;;;;;;3.40;1.97;;;7.70;86.60;;;9.55;61.91;98060.06;5033636;28;20481;-68
2023/12/27 08:50:53;;;;;;;5.57;2.43;;;7.70;86.90;;;9.57;62.04;98048.28;5034048;28;20045;-68
2023/12/27 08:53:21;;;;;;;4.20;2.63;;;7.80;86.60;;;9.60;61.89;98044.53;5033578;28;20516;-69
2023/12/27 08:55:49;;;;;;;8.77;2.50;;;7.80;86.50;;;9.62;61.79;98031.91;5032719;28;20536;-69
2023/12/27 08:58:16;;;;;;;6.50;2.50;;;7.90;86.40;;;9.66;61.67;98033.28;5033617;28;20072;-69
2023/12/27 09:00:44;;;;;;;4.63;2.70;;;7.90;86.40;;;9.69;61.61;98030.31;5033820;28;20037;-69
2023/12/27 09:03:12;;;;;;;4.57;3.60;;;7.90;86.10;;;9.69;61.12;98022.34;5033591;28;20045;-69
2023/12/27 09:05:39;;;;;;;4.53;2.63;;;7.90;86.10;;;9.69;61.54;98030.31;5033436;28;20504;-69
2023/12/27 09:08:07;;;;;;;5.97;4.30;;;7.90;85.80;;;9.69;61.35;98032.16;5032791;28;20058;-69
2023/12/27 09:10:35;;;;;;;6.40;3.10;;;7.90;85.80;;;9.69;61.60;98030.31;5033553;28;20421;-67
2023/12/27 09:13:03;;;;;;;3.50;2.23;;;8.00;85.30;;;9.68;61.50;98041.97;5033298;28;20057;-68
2023/12/27 09:15:31;;;;;;;4.03;2.70;;;8.00;85.10;;;9.70;61.42;98031.19;5033472;28;20040;-67
2023/12/27 09:17:59;;;;;;;3.90;2.57;;;8.10;85.10;;;9.72;61.57;98019.41;5032552;28;20064;-67
2023/12/27 09:20:27;;;;;;;5.60;2.80;;;8.10;84.90;;;9.75;61.43;98019.13;5033462;28;20042;-67
2023/12/27 09:22:55;;;;;;;3.93;2.53;;;8.10;85.20;;;9.75;61.39;98027.13;5025210;28;20052;-66
2023/12/27 09:25:22;;;;;;;5.13;2.87;;;8.10;85.10;;;9.76;61.22;98022.63;5033387;28;20041;-67
2023/12/27 09:27:50;;;;;;;6.00;2.53;;;8.10;85.20;;;9.72;61.32;98018.59;5033625;28;20068;-68
2023/12/27 09:30:18;;;;;;;7.47;2.63;;;8.10;83.40;;;9.73;61.01;98017.59;5031597;28;20052;-67
2023/12/27 09:32:45;;;;;;;4.50;2.40;;;8.10;82.30;;;9.72;60.22;98018.59;5032489;28;20053;-67
2023/12/27 09:35:13;;;;;;;4.60;2.47;;;8.10;80.20;;;9.69;59.94;98008.22;5032175;28;20045;-67
2023/12/27 09:37:41;;;;;;;3.70;2.13;;;8.00;79.60;;;9.67;59.75;98005.72;5031796;28;20071;-67
2023/12/27 09:40:09;;;;;;;5.80;2.50;;;8.00;78.30;;;9.68;59.21;98004.75;5032609;28;20037;-67
2023/12/27 09:42:40;;;;;;;6.47;2.50;;;8.00;77.60;;;9.69;59.49;98011.72;5031712;28;20489;-67
2023/12/27 09:45:09;;;;;;;4.23;2.33;;;8.00;78.20;;;9.70;59.26;98017.91;5033089;28;20053;-67
2023/12/27 09:47:40;;;;;;;5.20;2.10;;;8.00;77.70;;;9.66;58.69;98012.03;5033268;28;20056;-67
2023/12/27 09:50:08;;;;;;;2.83;2.03;;;7.90;76.80;;;9.68;58.72;98017.22;5031159;28;20053;-67
2023/12/27 09:52:39;;;;;;;4.70;2.53;;;7.90;76.70;;;9.68;58.24;98023.34;5032366;28;20045;-67
2023/12/27 09:55:07;;;;;;;4.50;2.33;;;7.90;76.40;;;9.68;58.01;98015.38;5032103;28;20425;-68
2023/12/27 09:57:36;;;;;;;3.60;1.97;;;8.00;75.10;;;9.70;57.79;98018.72;5031483;28;20041;-67
2023/12/27 10:00:05;;;;;;;4.13;2.30;;;8.00;73.70;;;9.74;58.02;98029.91;5014566;28;20049;-67
2023/12/27 10:02:35;;;;;;;3.73;2.23;;;8.00;73.50;;;9.75;57.34;98020.94;5032129;28;20421;-68
2023/12/27 10:05:19;;;;;;;3.30;1.90;;;8.00;73.80;;;9.78;57.37;98018.00;5031250;28;20064;-67
2023/12/27 10:07:47;;;;;;;3.90;2.33;;;8.00;73.20;;;9.84;57.10;98012.91;5030499;28;20076;-67
2023/12/27 10:10:38;;;;;;;5.43;2.40;;;8.10;73.20;;;9.92;57.48;98006.84;5032247;28;20047;-66
2023/12/27 10:13:11;;;;;;;5.57;2.60;;;8.30;71.90;;;10.00;57.03;98004.31;5023661;28;20053;-66
2023/12/27 10:15:38;;;;;;;4.27;2.83;;;8.40;72.10;;;10.08;57.09;97987.59;5031294;28;20599;-65
2023/12/27 10:18:07;;;;;;;4.40;2.80;;;8.40;72.80;;;10.16;56.50;97973.56;5031087;28;20053;-65
2023/12/27 10:20:36;;;;;;;3.63;2.60;;;8.60;72.00;;;10.23;56.61;97950.66;5032087;28;20042;-65
2023/12/27 10:23:05;;;;;;;3.70;2.10;;;8.70;72.00;;;10.29;56.38;97951.88;5030994;28;20041;-65
2023/12/27 10:25:33;;;;;;;2.73;2.00;;;8.70;71.10;;;10.34;55.77;97950.47;5032219;28;20076;-64
2023/12/27 10:28:00;;;;;;;3.93;3.23;;;8.70;70.00;;;10.38;55.91;97949.16;5032004;28;20516;-60
2023/12/27 10:30:28;;;;;;;3.17;2.40;;;8.80;70.70;;;10.44;56.05;97953.88;5030732;28;20053;-66
2023/12/27 10:33:02;;;;;;;5.70;1.97;;;8.80;70.70;;;10.52;55.72;97952.28;5030390;28;20076;-66